Time;durP1;ratioP1;P1;durP2;ratioP2;P2;SDS_P1;SDS_P2;PMS_P1;PMS_P2;Temp;Humidity;BMP_temperature;BMP_pressure;BME280_temperature;BME280_humidity;BME280_pressure;Samples;Min_cycle;Max_cycle;Signal;HPM_P1;HPM_P2
2022/08/20 00:01:09;;;;;;;6.95;5.88;;;;;;;18.71;84.65;97976.72;5039099;28;20117;-87
2022/08/20 00:03:40;;;;;;;8.68;7.15;;;;;;;18.58;85.42;97977.13;5046162;28;20120;-83
2022/08/20 00:06:17;;;;;;;9.82;7.72;;;;;;;18.51;85.25;97981.88;5044103;28;20134;-87
2022/08/20 00:08:45;;;;;;;8.25;7.45;;;;;;;18.48;85.33;97987.69;5042350;28;20138;-85
2022/08/20 00:11:21;;;;;;;7.53;6.78;;;;;;;18.44;86.02;97984.72;5050043;28;20131;-87
2022/08/20 00:13:58;;;;;;;6.97;6.22;;;;;;;18.50;86.02;97980.28;5051657;28;20120;-83
2022/08/20 00:16:31;;;;;;;7.60;6.78;;;;;;;18.50;86.23;97977.63;5054050;28;20049;-82
2022/08/20 00:19:00;;;;;;;6.75;6.10;;;;;;;18.54;85.90;97989.34;5049488;28;20096;-89
2022/08/20 00:21:27;;;;;;;7.97;7.18;;;;;;;18.41;85.81;97986.06;5049776;28;20566;-85
2022/08/20 00:23:58;;;;;;;7.78;6.53;;;;;;;18.46;85.92;97990.59;5032933;28;20104;-87
2022/08/20 00:26:25;;;;;;;7.20;6.30;;;;;;;18.44;85.94;97988.19;5032780;28;20041;-89
2022/08/20 00:28:52;;;;;;;7.38;6.65;;;;;;;18.36;85.98;97980.69;5034564;28;20091;-85
2022/08/20 00:31:23;;;;;;;6.60;5.88;;;;;;;18.34;86.35;97987.28;5034333;28;20084;-85
2022/08/20 00:33:51;;;;;;;7.75;6.70;;;;;;;18.26;86.29;97983.25;5016691;28;20390;-83
2022/08/20 00:36:19;;;;;;;6.82;5.75;;;;;;;18.27;86.66;97984.84;5024351;28;20049;-85
2022/08/20 00:38:47;;;;;;;7.68;6.88;;;;;;;18.36;86.18;97990.50;5053041;28;20369;-82
2022/08/20 00:41:22;;;;;;;7.93;6.88;;;;;;;18.37;85.79;97984.94;5041462;28;20072;-83
2022/08/20 00:44:04;;;;;;;6.60;5.90;;;;;;;18.30;86.34;97968.44;5069752;28;20103;-88
2022/08/20 00:46:33;;;;;;;6.93;6.22;;;;;;;18.33;85.68;97978.53;5033553;28;20531;-86
2022/08/20 00:49:02;;;;;;;8.38;7.18;;;;;;;18.36;85.90;97979.91;5045142;28;20041;-84
2022/08/20 00:51:47;;;;;;;7.75;5.55;;;;;;;18.44;86.16;97990.84;5050098;28;20049;-86
2022/08/20 00:54:40;;;;;;;7.05;6.35;;;;;;;18.41;85.64;97988.72;5054061;28;20053;-86
2022/08/20 00:57:33;;;;;;;7.57;6.22;;;;;;;18.41;85.79;98001.97;5042042;28;20071;-86
2022/08/20 01:00:38;;;;;;;7.68;6.88;;;;;;;18.34;85.71;97993.41;5033968;28;20095;-86
2022/08/20 01:03:10;;;;;;;6.57;5.97;;;;;;;18.31;86.02;97996.56;5033365;28;20045;-88
2022/08/20 01:05:44;;;;;;;9.57;8.55;;;;;;;18.21;86.29;97993.81;5033573;28;20429;-85
2022/08/20 01:08:11;;;;;;;7.75;6.95;;;;;;;18.22;86.90;98006.03;5033135;28;20080;-84
2022/08/20 01:10:43;;;;;;;6.47;5.88;;;;;;;18.26;86.21;97995.72;5051319;28;20072;-86
2022/08/20 01:13:19;;;;;;;6.15;5.53;;;;;;;18.31;86.48;97998.44;5053020;28;20133;-87
2022/08/20 01:15:50;;;;;;;8.10;7.10;;;;;;;18.28;86.33;97999.72;5033115;28;20431;-88
2022/08/20 01:18:23;;;;;;;6.28;5.68;;;;;;;18.30;86.84;98002.16;5036605;28;20041;-87
2022/08/20 01:20:57;;;;;;;7.22;6.28;;;;;;;18.32;86.62;97998.16;5033113;28;20049;-88
2022/08/20 01:23:50;;;;;;;6.70;5.90;;;;;;;18.35;86.63;98005.66;5031495;28;20065;-86
2022/08/20 01:26:26;;;;;;;7.57;6.15;;;;;;;18.37;86.20;97997.41;5051226;28;20484;-84
2022/08/20 01:29:04;;;;;;;7.88;7.03;;;;;;;18.23;86.14;97989.03;5052757;28;20044;-88
2022/08/20 01:31:35;;;;;;;6.82;6.07;;;;;;;18.21;86.61;97988.50;5035333;28;20110;-88
2022/08/20 01:34:07;;;;;;;7.28;6.45;;;;;;;18.24;86.43;97993.31;5052818;28;20044;-88
2022/08/20 01:36:41;;;;;;;7.32;6.38;;;;;;;18.17;86.16;97988.22;5051428;28;20526;-87
2022/08/20 01:39:21;;;;;;;8.27;6.70;;;;;;;18.17;86.58;97992.69;5051754;28;20045;-86
2022/08/20 01:42:16;;;;;;;7.38;6.60;;;;;;;18.10;86.81;98000.88;5039836;28;20099;-85
2022/08/20 01:44:46;;;;;;;8.35;7.45;;;;;;;18.08;87.18;97991.56;5038439;28;20049;-83
2022/08/20 01:47:19;;;;;;;7.88;7.07;;;;;;;18.10;87.23;97987.59;5032899;28;20045;-83
2022/08/20 01:50:00;;;;;;;9.55;7.95;;;;;;;18.14;86.89;97985.25;5041999;28;21028;-87
2022/08/20 01:52:50;;;;;;;7.57;6.72;;;;;;;18.10;86.91;97978.84;5034489;28;20072;-87
2022/08/20 01:55:37;;;;;;;8.55;7.20;;;;;;;18.21;87.18;97988.50;5032528;28;20080;-86
2022/08/20 01:58:05;;;;;;;6.68;6.03;;;;;;;18.31;87.14;97993.13;5041889;28;20037;-88
2022/08/20 02:00:34;;;;;;;7.05;5.93;;;;;;;18.27;86.69;97982.19;5043619;28;20045;-88
2022/08/20 02:03:02;;;;;;;8.60;7.15;;;;;;;18.30;86.54;97996.84;5032280;28;20091;-85
2022/08/20 02:05:32;;;;;;;8.60;7.70;;;;;;;18.25;86.55;98005.53;5033000;28;20084;-87
2022/08/20 02:07:59;;;;;;;7.38;6.50;;;;;;;18.18;86.86;97997.00;5044150;28;20095;-87
2022/08/20 02:10:27;;;;;;;8.65;7.45;;;;;;;18.30;86.73;98000.28;5032173;28;20076;-86
2022/08/20 02:12:59;;;;;;;9.40;8.43;;;;;;;18.33;86.45;98001.63;5046158;28;20654;-83
2022/08/20 02:15:26;;;;;;;7.82;6.45;;;;;;;18.42;86.43;98005.44;5025382;28;20079;-84
2022/08/20 02:18:10;;;;;;;7.47;5.70;;;;;;;18.50;86.18;98006.81;5052575;28;20052;-84
2022/08/20 02:20:39;;;;;;;8.43;7.40;;;;;;;18.48;85.47;97998.31;5052505;28;20080;-87
2022/08/20 02:23:07;;;;;;;10.25;9.02;;;;;;;18.46;85.52;98001.19;5050500;28;20469;-84
2022/08/20 02:25:38;;;;;;;8.75;7.68;;;;;;;18.42;85.59;98000.13;5047321;28;20103;-86
2022/08/20 02:28:12;;;;;;;7.93;6.40;;;;;;;18.43;85.60;97996.41;5035920;28;20444;-84
2022/08/20 02:30:47;;;;;;;10.48;8.38;;;;;;;18.38;85.67;97997.16;5045580;28;20048;-84
2022/08/20 02:33:18;;;;;;;10.65;8.82;;;;;;;18.38;85.49;97997.16;5041583;28;20437;-86
2022/08/20 02:35:51;;;;;;;11.48;9.07;;;;;;;18.27;85.92;97998.13;5037367;28;20052;-87
2022/08/20 02:38:18;;;;;;;8.00;7.00;;;;;;;18.25;86.08;97994.91;5039541;28;20037;-86
2022/08/20 02:40:45;;;;;;;10.18;9.18;;;;;;;18.21;86.28;97988.50;5045429;28;20052;-83
2022/08/20 02:43:13;;;;;;;10.85;8.48;;;;;;;18.23;86.22;97991.69;5031720;28;20072;-84
2022/08/20 02:45:42;;;;;;;9.75;7.25;;;;;;;18.11;86.14;97978.59;5051392;28;20090;-85
2022/08/20 02:48:19;;;;;;;10.38;7.80;;;;;;;18.11;86.76;97989.22;5049747;28;20076;-84
2022/08/20 02:50:55;;;;;;;8.02;7.20;;;;;;;18.10;86.92;97992.09;5030941;28;20055;-86
2022/08/20 02:53:25;;;;;;;9.20;7.78;;;;;;;18.18;87.11;97984.50;5035064;28;20045;-85
2022/08/20 02:55:51;;;;;;;8.20;7.18;;;;;;;18.23;86.69;97986.38;5030580;28;20071;-86
2022/08/20 02:58:19;;;;;;;9.90;8.85;;;;;;;18.19;86.24;97987.97;5038914;28;20083;-86
2022/08/20 03:00:47;;;;;;;9.63;8.48;;;;;;;18.19;86.54;97975.50;5054475;28;20551;-86
2022/08/20 03:03:19;;;;;;;10.27;8.43;;;;;;;18.20;86.58;97978.94;5038545;28;20071;-88
2022/08/20 03:05:45;;;;;;;10.52;9.10;;;;;;;18.30;86.26;97996.84;5029888;28;20115;-88
2022/08/20 03:08:13;;;;;;;8.57;7.13;;;;;;;18.31;86.51;97983.31;5053447;28;20042;-84
2022/08/20 03:10:44;;;;;;;9.68;7.75;;;;;;;18.33;85.62;97988.34;5043554;28;20041;-86
2022/08/20 03:13:12;;;;;;;;;;;;;;;18.38;85.79;97997.16;5031326;28;20485;-87
2022/08/20 03:15:47;;;;;;;8.75;7.45;;;;;;;18.39;85.50;97997.97;5031440;28;19972;-87
2022/08/20 03:18:16;;;;;;;8.38;6.72;;;;;;;18.41;85.57;97991.38;5031221;28;20081;-86
2022/08/20 03:20:44;;;;;;;8.70;7.40;;;;;;;18.42;85.44;97986.84;5039218;28;20072;-87
2022/08/20 03:23:12;;;;;;;9.10;7.55;;;;;;;18.43;85.54;97991.09;5050984;28;20045;-88
2022/08/20 03:25:39;;;;;;;8.23;7.25;;;;;;;18.46;85.82;97994.03;5050736;28;20495;-86
2022/08/20 03:28:06;;;;;;;9.48;7.78;;;;;;;18.45;85.73;97984.47;5049045;28;20075;-87
2022/08/20 03:30:34;;;;;;;10.15;7.97;;;;;;;18.52;85.36;97988.78;5050958;28;20073;-85
2022/08/20 03:33:01;;;;;;;8.93;8.02;;;;;;;18.49;84.78;97974.16;5049079;28;20045;-87
2022/08/20 03:35:31;;;;;;;9.57;8.20;;;;;;;18.48;85.02;97979.72;5031359;28;20554;-86
2022/08/20 03:37:59;;;;;;;8.50;7.55;;;;;;;18.48;85.09;97985.03;5038875;28;20041;-87
2022/08/20 03:40:32;;;;;;;9.95;8.88;;;;;;;18.50;84.88;97990.88;5029693;28;20050;-85
2022/08/20 03:43:00;;;;;;;9.48;7.85;;;;;;;18.51;85.06;97992.50;5029821;28;20045;-84
2022/08/20 03:45:28;;;;;;;8.13;7.13;;;;;;;18.44;85.37;97988.19;5030864;28;20084;-85
2022/08/20 03:47:56;;;;;;;8.20;6.80;;;;;;;18.50;85.18;97985.56;5046772;28;20080;-86
2022/08/20 03:50:29;;;;;;;8.40;7.35;;;;;;;18.49;85.28;97983.97;5046000;28;20045;-83
2022/08/20 03:52:59;;;;;;;9.13;8.15;;;;;;;18.48;85.11;97993.00;5065081;28;20071;-85
2022/08/20 03:55:35;;;;;;;8.27;6.95;;;;;;;18.37;84.67;97987.59;5053048;28;20057;-86
2022/08/20 03:58:07;;;;;;;8.15;7.18;;;;;;;18.43;85.20;97997.22;5050972;28;20073;-84
2022/08/20 04:00:49;;;;;;;7.63;6.63;;;;;;;18.39;85.23;97998.75;5070906;28;20041;-84
2022/08/20 04:03:16;;;;;;;8.90;7.25;;;;;;;18.39;85.34;98005.94;5043269;28;20045;-87
2022/08/20 04:05:45;;;;;;;8.57;6.82;;;;;;;18.31;85.59;98001.88;5034296;28;20509;-88
2022/08/20 04:08:18;;;;;;;9.23;7.55;;;;;;;18.36;85.79;98012.56;5033147;28;20045;-86
2022/08/20 04:10:46;;;;;;;7.47;6.53;;;;;;;18.38;85.77;98006.97;5049078;28;20509;-86
2022/08/20 04:13:16;;;;;;;9.13;8.13;;;;;;;18.34;85.49;98003.22;5033420;28;20083;-86
2022/08/20 04:15:47;;;;;;;9.27;7.10;;;;;;;18.33;86.08;98002.41;5033991;28;20044;-88
2022/08/20 04:18:19;;;;;;;8.93;7.40;;;;;;;18.38;85.80;98012.28;5042343;28;20103;-86
2022/08/20 04:20:46;;;;;;;8.27;6.88;;;;;;;18.40;85.70;98021.59;5054560;28;20102;-87
2022/08/20 04:23:13;;;;;;;8.77;7.20;;;;;;;18.42;85.77;98027.47;5047547;28;20466;-87
2022/08/20 04:25:45;;;;;;;7.50;6.68;;;;;;;18.42;85.73;98032.78;5045799;28;20049;-85
2022/08/20 04:28:24;;;;;;;7.65;6.85;;;;;;;18.39;85.44;98027.16;5069398;28;20072;-86
2022/08/20 04:30:51;;;;;;;7.60;6.55;;;;;;;18.41;85.15;98028.53;5038858;28;20088;-86
2022/08/20 04:33:20;;;;;;;7.60;6.80;;;;;;;18.42;85.59;98027.47;5046471;28;20084;-85
2022/08/20 04:36:01;;;;;;;9.98;7.10;;;;;;;18.39;85.84;98024.50;5051718;28;20045;-88
2022/08/20 04:38:29;;;;;;;7.32;6.32;;;;;;;18.47;86.15;98032.00;5052781;28;20045;-87
2022/08/20 04:41:18;;;;;;;7.80;6.47;;;;;;;18.45;85.87;98021.66;5052412;28;20506;-85
2022/08/20 04:43:52;;;;;;;8.88;7.03;;;;;;;18.49;85.78;98039.75;5037105;28;20048;-83
2022/08/20 04:46:22;;;;;;;7.70;6.90;;;;;;;18.48;85.54;98038.94;5041575;28;20045;-84
2022/08/20 04:48:49;;;;;;;8.10;6.55;;;;;;;18.49;85.65;98037.09;5052967;28;20037;-86
2022/08/20 04:51:17;;;;;;;7.47;6.68;;;;;;;18.53;85.51;98043.47;5042577;28;20045;-84
2022/08/20 04:53:45;;;;;;;7.40;6.43;;;;;;;18.56;85.78;98037.69;5045139;28;20053;-84
2022/08/20 04:56:22;;;;;;;7.65;6.63;;;;;;;18.57;84.98;98048.03;5034334;28;20049;-84
2022/08/20 04:58:53;;;;;;;6.95;6.25;;;;;;;18.55;84.89;98041.41;5033241;28;20481;-84
2022/08/20 05:01:22;;;;;;;8.63;7.72;;;;;;;18.58;84.83;98044.34;5033505;28;20121;-84
2022/08/20 05:03:50;;;;;;;9.00;6.78;;;;;;;18.58;85.01;98047.00;5039484;28;20551;-83
2022/08/20 05:06:17;;;;;;;7.82;6.22;;;;;;;18.55;85.12;98041.41;5035662;28;20088;-86
2022/08/20 05:08:44;;;;;;;6.70;6.03;;;;;;;18.63;84.72;98043.59;5034954;28;20045;-84
2022/08/20 05:11:15;;;;;;;7.13;6.05;;;;;;;18.64;84.71;98045.97;5033580;28;20045;-84
2022/08/20 05:14:07;;;;;;;6.38;5.78;;;;;;;18.65;84.86;98049.44;5039830;28;20044;-83
2022/08/20 05:16:39;;;;;;;6.20;5.60;;;;;;;18.67;84.69;98050.84;5050624;28;20036;-87
2022/08/20 05:19:12;;;;;;;6.60;5.95;;;;;;;18.66;84.76;98045.75;5033546;28;20472;-86
2022/08/20 05:21:40;;;;;;;7.93;6.13;;;;;;;18.65;84.64;98036.16;5033258;28;20049;-84
2022/08/20 05:24:08;;;;;;;8.63;7.10;;;;;;;18.55;84.28;98033.44;5033195;28;20077;-85
2022/08/20 05:26:35;;;;;;;7.75;6.15;;;;;;;18.58;84.91;98041.69;5032849;28;20497;-84
2022/08/20 05:29:03;;;;;;;6.22;5.55;;;;;;;18.55;84.86;98039.53;5045415;28;20487;-84
2022/08/20 05:31:32;;;;;;;7.28;5.95;;;;;;;18.64;84.44;98051.28;5037156;28;20045;-86
2022/08/20 05:34:11;;;;;;;6.22;5.63;;;;;;;18.64;84.57;98047.84;5041731;28;20068;-84
2022/08/20 05:36:45;;;;;;;5.88;4.97;;;;;;;18.67;84.58;98050.03;5040819;28;20139;-84
2022/08/20 05:39:17;;;;;;;7.57;6.35;;;;;;;18.62;84.24;98049.94;5047182;28;20037;-86
2022/08/20 05:41:43;;;;;;;7.10;5.68;;;;;;;18.67;84.48;98061.47;5042461;28;20049;-87
2022/08/20 05:44:14;;;;;;;8.18;6.60;;;;;;;18.69;84.54;98063.84;5039743;28;20045;-85
2022/08/20 05:46:44;;;;;;;7.43;6.63;;;;;;;18.70;84.52;98066.25;5053052;28;20468;-84
2022/08/20 05:49:18;;;;;;;6.95;6.25;;;;;;;18.72;84.69;98060.72;5034047;28;20073;-84
2022/08/20 05:51:46;;;;;;;7.78;6.38;;;;;;;18.73;84.68;98059.66;5035132;28;20107;-84
2022/08/20 05:54:15;;;;;;;7.53;6.67;;;;;;;18.76;85.07;98053.03;5032541;28;20132;-83
2022/08/20 05:56:42;;;;;;;7.93;7.03;;;;;;;18.75;84.31;98056.72;5042028;28;20080;-84
2022/08/20 05:59:11;;;;;;;6.43;5.82;;;;;;;18.76;84.54;98059.13;5047961;28;20390;-85
2022/08/20 06:01:39;;;;;;;8.00;6.75;;;;;;;18.73;84.69;98054.34;5041993;28;20098;-84
2022/08/20 06:04:23;;;;;;;7.90;7.07;;;;;;;18.76;84.92;98064.44;5052204;28;20072;-86
2022/08/20 06:07:04;;;;;;;6.70;6.05;;;;;;;18.77;84.86;98063.38;5052426;28;20098;-84
2022/08/20 06:09:32;;;;;;;9.05;7.70;;;;;;;18.80;84.88;98070.06;5052386;28;20079;-86
2022/08/20 06:12:03;;;;;;;10.07;8.02;;;;;;;18.75;84.83;98068.16;5051683;28;20045;-87
2022/08/20 06:14:31;;;;;;;8.35;7.22;;;;;;;18.81;85.63;98069.81;5050995;28;20091;-86
2022/08/20 06:17:14;;;;;;;7.93;6.80;;;;;;;18.90;85.89;98073.63;5052143;28;20095;-85
2022/08/20 06:19:43;;;;;;;6.70;6.00;;;;;;;19.01;85.72;98073.66;5040325;28;20104;-85
2022/08/20 06:22:11;;;;;;;7.70;6.90;;;;;;;19.02;85.05;98073.44;5050484;28;20106;-87
2022/08/20 06:24:50;;;;;;;10.02;6.90;;;;;;;19.09;84.95;98078.53;5035546;28;20132;-86
2022/08/20 06:27:18;;;;;;;9.50;8.23;;;;;;;19.05;84.16;98077.44;5066930;28;20095;-84
2022/08/20 06:29:45;;;;;;;9.48;8.48;;;;;;;19.10;84.65;98080.13;5052312;28;20444;-85
2022/08/20 06:32:12;;;;;;;8.40;7.55;;;;;;;19.26;85.14;98084.50;5051810;28;20095;-85
2022/08/20 06:34:39;;;;;;;7.50;6.65;;;;;;;19.32;84.44;98077.38;5051458;28;20087;-86
2022/08/20 06:37:30;;;;;;;9.57;7.72;;;;;;;19.40;84.00;98076.88;5050113;28;20115;-87
2022/08/20 06:40:15;;;;;;;8.60;7.70;;;;;;;19.52;84.07;98082.81;5043576;28;20120;-85
2022/08/20 06:42:42;;;;;;;7.97;7.18;;;;;;;19.62;84.28;98082.91;5051502;28;20079;-86
2022/08/20 06:45:23;;;;;;;8.60;7.45;;;;;;;19.74;82.64;98085.34;5043463;28;20079;-86
2022/08/20 06:47:54;;;;;;;9.05;8.15;;;;;;;19.91;83.32;98085.97;5035796;28;20084;-86
2022/08/20 06:50:30;;;;;;;8.77;7.88;;;;;;;20.11;82.85;98095.09;5033496;28;20128;-86
2022/08/20 06:52:58;;;;;;;10.68;8.85;;;;;;;20.28;82.66;98085.03;5027465;28;20041;-86
2022/08/20 06:55:50;;;;;;;11.02;9.93;;;;;;;20.38;81.29;98085.03;5032048;28;20208;-86
2022/08/20 06:58:36;;;;;;;12.13;10.90;;;;;;;20.40;80.37;98088.25;5050213;28;20102;-86
2022/08/20 07:01:23;;;;;;;9.80;8.75;;;;;;;20.52;79.83;98085.38;5051619;28;20044;-86
2022/08/20 07:03:50;;;;;;;10.48;9.38;;;;;;;20.45;79.29;98087.44;5048914;28;20045;-86
2022/08/20 07:06:25;;;;;;;9.65;8.65;;;;;;;20.44;80.01;98091.16;5045573;28;20401;-86
2022/08/20 07:08:54;;;;;;;10.95;9.80;;;;;;;20.48;80.27;98090.41;5050551;28;20131;-86
2022/08/20 07:11:22;;;;;;;11.70;10.50;;;;;;;20.69;78.49;98087.78;5050976;28;20056;-86
2022/08/20 07:13:56;;;;;;;10.52;9.52;;;;;;;20.73;77.33;98091.50;5032057;28;20657;-87
2022/08/20 07:16:24;;;;;;;10.15;9.10;;;;;;;20.62;79.20;98080.03;5051520;28;20041;-87
2022/08/20 07:18:51;;;;;;;8.90;8.00;;;;;;;20.64;78.51;98093.91;5063871;28;20091;-86
2022/08/20 07:21:17;;;;;;;10.63;9.50;;;;;;;20.78;79.54;98097.66;5041599;28;20538;-85
2022/08/20 07:23:44;;;;;;;11.13;10.00;;;;;;;20.77;79.03;98090.72;5041772;28;20400;-87
2022/08/20 07:26:12;;;;;;;9.63;8.70;;;;;;;20.87;79.96;98105.94;5048250;28;20550;-86
2022/08/20 07:28:39;;;;;;;12.23;9.85;;;;;;;20.92;77.95;98094.47;5045444;28;20057;-87
2022/08/20 07:33:52;;;;;;;13.93;12.63;;;;;;;21.12;78.91;98086.47;5047317;28;20071;-86
2022/08/20 07:36:19;;;;;;;10.90;9.90;;;;;;;21.18;78.85;98089.94;5050404;28;20060;-85
2022/08/20 07:38:49;;;;;;;11.15;10.10;;;;;;;21.07;77.37;98089.13;5051376;28;20080;-87
2022/08/20 07:41:18;;;;;;;11.88;10.63;;;;;;;21.13;76.89;98095.28;5037984;28;20038;-84
2022/08/20 07:43:46;;;;;;;12.23;11.02;;;;;;;21.13;75.87;98097.94;5029520;28;20087;-86
2022/08/20 07:46:17;;;;;;;10.73;9.70;;;;;;;21.18;76.63;98103.28;5041762;28;20128;-84
2022/08/20 07:48:48;;;;;;;11.68;10.50;;;;;;;21.24;77.00;98107.53;5037823;28;20124;-84
2022/08/20 07:51:21;;;;;;;10.45;9.45;;;;;;;21.42;75.56;98109.69;5031434;28;20037;-84
2022/08/20 07:53:50;;;;;;;11.70;10.60;;;;;;;21.45;76.19;98105.66;5028401;28;20053;-85
2022/08/20 07:56:22;;;;;;;11.57;10.43;;;;;;;21.44;75.97;98107.53;5047019;28;20049;-84
2022/08/20 07:58:55;;;;;;;11.75;10.65;;;;;;;21.44;76.31;98110.19;5051105;28;20045;-84
2022/08/20 08:01:29;;;;;;;13.80;12.50;;;;;;;21.41;76.65;98116.09;5066914;28;20064;-84
2022/08/20 08:03:58;;;;;;;9.68;8.82;;;;;;;21.43;76.97;98111.28;5066551;28;20374;-84
2022/08/20 08:06:26;;;;;;;10.98;9.98;;;;;;;21.47;78.40;98119.50;5048780;28;20128;-84
2022/08/20 08:09:13;;;;;;;11.27;10.23;;;;;;;21.54;77.53;98112.06;5031599;28;20084;-84
2022/08/20 08:11:49;;;;;;;11.60;10.50;;;;;;;21.55;75.91;98114.44;5036813;28;20079;-84
2022/08/20 08:14:22;;;;;;;10.02;9.07;;;;;;;21.64;74.31;98118.16;5031781;28;20129;-86
2022/08/20 08:16:51;;;;;;;10.73;9.73;;;;;;;21.69;78.04;98113.88;5043327;28;20064;-85
2022/08/20 08:19:18;;;;;;;11.43;10.32;;;;;;;21.71;77.41;98107.22;5029934;28;20049;-85
2022/08/20 08:21:45;;;;;;;11.73;10.63;;;;;;;21.76;76.25;98114.38;5030859;28;20096;-85
2022/08/20 08:24:13;;;;;;;12.60;11.30;;;;;;;21.72;75.48;98111.47;5031091;28;20095;-85
2022/08/20 08:26:48;;;;;;;11.00;10.00;;;;;;;21.77;77.41;98116.81;5029967;28;20038;-85
2022/08/20 08:29:16;;;;;;;10.25;9.30;;;;;;;21.78;75.79;98113.06;5030682;28;20045;-85
2022/08/20 08:31:43;;;;;;;11.15;10.15;;;;;;;21.80;76.81;98112.78;5050665;28;20099;-86
2022/08/20 08:34:10;;;;;;;11.25;10.23;;;;;;;21.68;74.30;98106.94;5051958;28;20049;-84
2022/08/20 08:36:38;;;;;;;10.25;9.27;;;;;;;21.70;75.37;98120.81;5059319;28;20045;-83
2022/08/20 08:39:05;;;;;;;11.90;10.80;;;;;;;21.68;75.93;98129.09;5033256;28;20041;-84
2022/08/20 08:41:48;;;;;;;13.02;11.93;;;;;;;21.62;77.11;98128.31;5053142;28;20041;-84
2022/08/20 08:44:22;;;;;;;10.93;9.93;;;;;;;21.70;77.17;98128.81;5045659;28;20378;-84
2022/08/20 08:46:57;;;;;;;10.90;9.98;;;;;;;21.69;76.74;98119.22;5050161;28;20037;-83
2022/08/20 08:49:31;;;;;;;11.70;10.60;;;;;;;21.75;78.22;98134.16;5056075;28;20046;-83
2022/08/20 08:52:14;;;;;;;13.43;12.15;;;;;;;21.72;77.21;98134.72;5031940;28;20049;-83
2022/08/20 08:54:57;;;;;;;10.93;9.73;;;;;;;21.62;76.90;98135.50;5034801;28;20054;-84
2022/08/20 08:57:25;;;;;;;10.98;10.00;;;;;;;21.63;75.35;98143.25;5041605;28;20102;-83
2022/08/20 09:00:00;;;;;;;11.15;10.13;;;;;;;21.66;77.12;98133.13;5054649;28;20090;-84
2022/08/20 09:02:33;;;;;;;11.63;10.52;;;;;;;21.55;76.15;98140.34;5040532;28;20049;-84
2022/08/20 09:05:12;;;;;;;8.93;8.10;;;;;;;21.53;75.51;98148.63;5055624;28;20052;-83
2022/08/20 09:07:40;;;;;;;10.15;9.15;;;;;;;21.62;76.76;98146.19;5048580;28;20440;-83
2022/08/20 09:10:07;;;;;;;9.05;8.25;;;;;;;21.64;74.26;98147.50;5044299;28;20083;-83
2022/08/20 09:12:34;;;;;;;10.23;9.40;;;;;;;21.64;74.82;98150.19;5049797;28;20049;-83
2022/08/20 09:15:01;;;;;;;11.35;10.32;;;;;;;21.62;77.34;98141.66;5051880;28;20068;-84
2022/08/20 09:17:27;;;;;;;9.40;8.60;;;;;;;21.48;75.48;98139.81;5053783;28;20087;-84
2022/08/20 09:19:54;;;;;;;10.15;9.25;;;;;;;21.60;75.10;98149.13;5034836;28;20048;-83
2022/08/20 09:22:24;;;;;;;10.15;9.15;;;;;;;21.71;73.47;98138.41;5037216;28;20064;-83
2022/08/20 09:24:52;;;;;;;8.30;7.60;;;;;;;21.80;75.25;98139.47;5040345;28;20040;-84
2022/08/20 09:27:19;;;;;;;10.13;9.13;;;;;;;21.88;72.03;98146.91;5036968;28;20072;-83
2022/08/20 09:29:45;;;;;;;10.55;9.55;;;;;;;21.88;72.62;98155.72;5042289;28;20488;-84
2022/08/20 09:32:23;;;;;;;10.48;9.38;;;;;;;22.00;71.77;98151.97;5051767;28;20051;-85
2022/08/20 09:34:55;;;;;;;11.85;10.65;;;;;;;22.10;74.05;98158.09;5044592;28;20132;-86
2022/08/20 09:37:29;;;;;;;9.10;8.30;;;;;;;22.03;71.87;98149.56;5053090;28;20049;-85
2022/08/20 09:40:05;;;;;;;9.30;8.50;;;;;;;22.02;70.93;98153.31;5053248;28;20052;-85
2022/08/20 09:42:35;;;;;;;8.20;7.50;;;;;;;22.09;69.05;98166.38;5053020;28;20115;-85
2022/08/20 09:45:09;;;;;;;9.85;9.05;;;;;;;22.20;74.94;98154.59;5046399;28;20045;-87
2022/08/20 09:47:38;;;;;;;8.25;7.55;;;;;;;22.32;72.60;98154.28;5034980;28;20072;-85
2022/08/20 09:50:20;;;;;;;9.02;8.13;;;;;;;22.33;69.48;98147.88;5050337;28;20048;-84
2022/08/20 09:52:54;;;;;;;9.57;8.77;;;;;;;22.44;67.58;98146.75;5034799;28;20428;-86
2022/08/20 09:55:36;;;;;;;10.13;9.23;;;;;;;22.43;67.13;98151.31;5050940;28;20057;-84
2022/08/20 09:58:37;;;;;;;8.13;7.43;;;;;;;22.63;69.76;98152.25;5051548;28;20037;-84
2022/08/20 10:01:13;;;;;;;8.23;7.50;;;;;;;22.84;69.54;98151.03;5045229;28;20057;-84
2022/08/20 10:03:42;;;;;;;10.27;9.38;;;;;;;22.84;66.44;98160.94;5052048;28;20049;-84
2022/08/20 10:06:10;;;;;;;11.00;10.10;;;;;;;22.82;67.56;98150.53;5046364;28;20068;-83
2022/08/20 10:08:37;;;;;;;9.63;8.73;;;;;;;22.80;67.86;98147.34;5051897;28;20091;-84
2022/08/20 10:11:04;;;;;;;11.50;10.50;;;;;;;22.66;66.12;98147.13;5052167;28;20041;-84
2022/08/20 10:13:31;;;;;;;9.93;9.02;;;;;;;22.65;67.19;98142.88;5051512;28;20049;-87
2022/08/20 10:15:58;;;;;;;10.07;9.07;;;;;;;22.70;68.46;98145.53;5052184;28;20076;-85
2022/08/20 10:18:25;;;;;;;9.90;8.85;;;;;;;22.67;69.10;98135.41;5035486;28;20041;-83
2022/08/20 10:20:51;;;;;;;9.20;8.40;;;;;;;22.74;66.08;98151.13;5037964;28;20041;-83
2022/08/20 10:23:18;;;;;;;8.38;7.57;;;;;;;22.71;66.05;98144.44;5037451;28;20144;-83
2022/08/20 10:25:46;;;;;;;12.48;11.30;;;;;;;22.69;70.23;98149.28;5039531;28;20053;-85
2022/08/20 10:28:13;;;;;;;10.13;9.07;;;;;;;22.73;67.97;98154.06;5051329;28;20045;-85
2022/08/20 10:30:40;;;;;;;9.95;9.05;;;;;;;22.79;70.25;98143.09;5053462;28;20041;-86
2022/08/20 10:33:06;;;;;;;8.85;8.10;;;;;;;23.00;69.92;98143.75;5044530;28;20471;-86
2022/08/20 10:35:33;;;;;;;8.30;7.57;;;;;;;23.09;70.34;98152.78;5052531;28;20462;-85
2022/08/20 10:38:00;;;;;;;11.32;8.95;;;;;;;23.10;71.49;98143.69;5068813;28;20494;-87
2022/08/20 10:40:26;;;;;;;9.20;8.40;;;;;;;23.22;68.86;98152.16;5036153;28;20037;-86
2022/08/20 10:42:53;;;;;;;9.25;8.40;;;;;;;23.33;67.60;98152.03;5036084;28;20488;-86
2022/08/20 10:45:20;;;;;;;9.02;8.23;;;;;;;23.31;65.25;98144.31;5052327;28;20041;-87
2022/08/20 10:47:47;;;;;;;8.75;7.95;;;;;;;23.38;66.84;98152.00;5055387;28;20067;-86
2022/08/20 10:50:16;;;;;;;8.05;7.45;;;;;;;23.53;69.04;98153.75;5054868;28;20044;-87
2022/08/20 10:52:42;;;;;;;9.27;8.38;;;;;;;23.57;65.75;98147.56;5042632;28;20076;-86
2022/08/20 10:55:15;;;;;;;8.32;7.63;;;;;;;23.75;67.31;98154.91;5034592;28;20053;-86
2022/08/20 10:57:43;;;;;;;11.93;10.75;;;;;;;23.77;65.31;98142.03;5052235;28;20041;-87
2022/08/20 11:00:13;;;;;;;9.10;8.30;;;;;;;23.87;67.58;98137.63;5067737;28;20067;-85
2022/08/20 11:02:40;;;;;;;11.88;10.10;;;;;;;23.87;63.02;98134.94;5048683;28;20088;-85
2022/08/20 11:05:08;;;;;;;13.20;11.75;;;;;;;23.75;61.98;98138.84;5031842;28;20406;-85
2022/08/20 11:07:40;;;;;;;9.93;9.02;;;;;;;23.77;62.78;98136.66;5033684;28;20516;-86
2022/08/20 11:10:28;;;;;;;8.23;7.53;;;;;;;23.93;65.96;98136.47;5039461;28;20500;-84
2022/08/20 11:12:55;;;;;;;8.57;7.75;;;;;;;23.96;62.83;98146.63;5066140;28;20295;-85
2022/08/20 11:15:22;;;;;;;8.70;7.95;;;;;;;24.13;66.24;98136.25;5033200;28;20124;-87
2022/08/20 11:17:49;;;;;;;8.20;7.50;;;;;;;24.36;65.16;98128.50;5030859;28;20091;-86
2022/08/20 11:20:20;;;;;;;9.65;8.75;;;;;;;24.51;64.76;98136.34;5033528;28;20049;-86
2022/08/20 11:22:46;;;;;;;10.20;9.20;;;;;;;24.55;64.00;98118.59;5031852;28;20052;-86
2022/08/20 11:25:14;;;;;;;9.38;8.52;;;;;;;24.74;65.33;98124.75;5014429;28;20064;-84
2022/08/20 11:27:46;;;;;;;7.45;6.75;;;;;;;24.73;61.32;98133.88;5034092;28;20048;-84
2022/08/20 11:30:26;;;;;;;6.88;6.32;;;;;;;24.73;67.46;98136.56;5051080;28;20080;-85
2022/08/20 11:32:54;;;;;;;10.57;9.68;;;;;;;24.55;63.71;98123.94;5051668;28;20049;-86
2022/08/20 11:35:22;;;;;;;8.68;7.90;;;;;;;24.47;66.67;98121.91;5050528;28;20045;-85
2022/08/20 11:38:10;;;;;;;9.65;8.75;;;;;;;24.28;62.10;98125.34;5051829;28;20049;-84
2022/08/20 11:40:36;;;;;;;8.30;7.60;;;;;;;24.23;61.80;98122.75;5034553;28;20106;-84
2022/08/20 11:43:03;;;;;;;7.07;6.38;;;;;;;24.20;62.03;98117.16;5039045;28;20072;-85
2022/08/20 11:45:51;;;;;;;7.45;6.72;;;;;;;24.09;61.73;98111.13;5060786;28;20103;-85
2022/08/20 11:48:18;;;;;;;7.05;6.35;;;;;;;24.05;63.69;98107.44;5030995;28;20084;-85
2022/08/20 11:50:47;;;;;;;9.02;8.23;;;;;;;24.01;64.42;98109.09;5031850;28;20045;-84
2022/08/20 11:53:14;;;;;;;8.63;7.63;;;;;;;24.00;62.14;98110.16;5035123;28;20049;-84